sensor_id;sensor_type;location;lat;lon;timestamp;temperature;humidity
18948;DHT22;9607;51.600;7.558;2023-04-24T00:01:58;12.00;99.90
18948;DHT22;9607;51.600;7.558;2023-04-24T00:04:26;12.00;99.90
18948;DHT22;9607;51.600;7.558;2023-04-24T00:06:53;12.00;99.90
18948;DHT22;9607;51.600;7.558;2023-04-24T00:09:22;12.00;99.90
18948;DHT22;9607;51.600;7.558;2023-04-24T00:11:49;12.00;99.90
18948;DHT22;9607;51.600;7.558;2023-04-24T00:14:16;12.00;99.90
18948;DHT22;9607;51.600;7.558;2023-04-24T00:16:43;12.00;99.90
18948;DHT22;9607;51.600;7.558;2023-04-24T00:19:11;12.00;99.90
18948;DHT22;9607;51.600;7.558;2023-04-24T00:21:38;12.00;99.90
18948;DHT22;9607;51.600;7.558;2023-04-24T00:24:05;11.90;99.90
18948;DHT22;9607;51.600;7.558;2023-04-24T00:26:34;11.90;99.90
18948;DHT22;9607;51.600;7.558;2023-04-24T00:29:01;11.80;99.90
18948;DHT22;9607;51.600;7.558;2023-04-24T00:31:27;11.70;99.90
18948;DHT22;9607;51.600;7.558;2023-04-24T00:33:54;11.60;99.90
18948;DHT22;9607;51.600;7.558;2023-04-24T00:36:22;11.40;99.90
18948;DHT22;9607;51.600;7.558;2023-04-24T00:38:49;11.40;99.90
18948;DHT22;9607;51.600;7.558;2023-04-24T00:41:16;11.30;99.90
18948;DHT22;9607;51.600;7.558;2023-04-24T00:43:43;11.20;99.90
18948;DHT22;9607;51.600;7.558;2023-04-24T00:46:10;11.10;99.90
18948;DHT22;9607;51.600;7.558;2023-04-24T00:48:37;11.00;99.90
18948;DHT22;9607;51.600;7.558;2023-04-24T00:51:05;11.00;99.90
18948;DHT22;9607;51.600;7.558;2023-04-24T00:53:33;10.90;99.90
18948;DHT22;9607;51.600;7.558;2023-04-24T00:56:00;10.90;99.90
18948;DHT22;9607;51.600;7.558;2023-04-24T00:58:28;10.80;99.90
18948;DHT22;9607;51.600;7.558;2023-04-24T01:00:56;10.80;99.90
18948;DHT22;9607;51.600;7.558;2023-04-24T01:03:26;10.80;99.90
18948;DHT22;9607;51.600;7.558;2023-04-24T01:05:55;10.80;99.90
18948;DHT22;9607;51.600;7.558;2023-04-24T01:08:23;10.70;99.90
18948;DHT22;9607;51.600;7.558;2023-04-24T01:10:52;10.70;99.90
18948;DHT22;9607;51.600;7.558;2023-04-24T01:13:19;10.60;99.90
18948;DHT22;9607;51.600;7.558;2023-04-24T01:15:47;10.60;99.90
18948;DHT22;9607;51.600;7.558;2023-04-24T01:18:14;10.60;99.90
18948;DHT22;9607;51.600;7.558;2023-04-24T01:20:42;10.60;99.90
18948;DHT22;9607;51.600;7.558;2023-04-24T01:23:12;10.60;99.90
18948;DHT22;9607;51.600;7.558;2023-04-24T01:25:39;10.60;99.90
18948;DHT22;9607;51.600;7.558;2023-04-24T01:28:06;10.50;99.90
18948;DHT22;9607;51.600;7.558;2023-04-24T01:30:33;10.50;99.90
18948;DHT22;9607;51.600;7.558;2023-04-24T01:33:00;10.40;99.90
18948;DHT22;9607;51.600;7.558;2023-04-24T01:35:28;10.40;99.90
18948;DHT22;9607;51.600;7.558;2023-04-24T01:37:55;10.40;99.90
18948;DHT22;9607;51.600;7.558;2023-04-24T01:40:23;10.50;99.90
18948;DHT22;9607;51.600;7.558;2023-04-24T01:42:50;10.50;99.90
18948;DHT22;9607;51.600;7.558;2023-04-24T01:45:17;10.60;99.90
18948;DHT22;9607;51.600;7.558;2023-04-24T01:47:45;10.60;99.90
18948;DHT22;9607;51.600;7.558;2023-04-24T01:50:12;10.70;99.90
18948;DHT22;9607;51.600;7.558;2023-04-24T01:52:39;10.70;99.90
18948;DHT22;9607;51.600;7.558;2023-04-24T01:55:07;10.80;99.90
18948;DHT22;9607;51.600;7.558;2023-04-24T01:57:36;10.80;99.90
18948;DHT22;9607;51.600;7.558;2023-04-24T02:00:04;10.90;99.90
18948;DHT22;9607;51.600;7.558;2023-04-24T02:02:32;10.90;99.90
18948;DHT22;9607;51.600;7.558;2023-04-24T02:04:59;11.00;99.90
18948;DHT22;9607;51.600;7.558;2023-04-24T02:07:26;11.00;99.90
18948;DHT22;9607;51.600;7.558;2023-04-24T02:09:53;11.00;99.90
18948;DHT22;9607;51.600;7.558;2023-04-24T02:12:20;11.00;99.90
18948;DHT22;9607;51.600;7.558;2023-04-24T02:14:49;10.90;99.90
18948;DHT22;9607;51.600;7.558;2023-04-24T02:17:16;10.80;99.90
18948;DHT22;9607;51.600;7.558;2023-04-24T02:19:44;10.80;99.90
18948;DHT22;9607;51.600;7.558;2023-04-24T02:22:11;10.70;99.90
18948;DHT22;9607;51.600;7.558;2023-04-24T02:24:38;10.60;99.90
18948;DHT22;9607;51.600;7.558;2023-04-24T02:27:05;10.60;99.90
18948;DHT22;9607;51.600;7.558;2023-04-24T02:29:32;10.50;99.90
18948;DHT22;9607;51.600;7.558;2023-04-24T02:32:00;10.50;99.90
18948;DHT22;9607;51.600;7.558;2023-04-24T02:34:27;10.50;99.90
18948;DHT22;9607;51.600;7.558;2023-04-24T02:36:55;10.40;99.90
18948;DHT22;9607;51.600;7.558;2023-04-24T02:39:22;10.30;99.90
18948;DHT22;9607;51.600;7.558;2023-04-24T02:41:49;10.30;99.90
18948;DHT22;9607;51.600;7.558;2023-04-24T02:44:16;10.20;99.90
18948;DHT22;9607;51.600;7.558;2023-04-24T02:46:43;10.20;99.90
18948;DHT22;9607;51.600;7.558;2023-04-24T02:49:11;10.10;99.90
18948;DHT22;9607;51.600;7.558;2023-04-24T02:51:38;10.00;99.90
18948;DHT22;9607;51.600;7.558;2023-04-24T02:54:07;10.00;99.90
18948;DHT22;9607;51.600;7.558;2023-04-24T02:56:35;9.90;99.90
18948;DHT22;9607;51.600;7.558;2023-04-24T02:59:01;9.90;99.90
18948;DHT22;9607;51.600;7.558;2023-04-24T03:01:28;9.80;99.90
18948;DHT22;9607;51.600;7.558;2023-04-24T03:03:56;9.80;99.90
18948;DHT22;9607;51.600;7.558;2023-04-24T03:06:24;9.80;99.90
18948;DHT22;9607;51.600;7.558;2023-04-24T03:08:52;9.80;99.90
18948;DHT22;9607;51.600;7.558;2023-04-24T03:11:19;9.80;99.90
18948;DHT22;9607;51.600;7.558;2023-04-24T03:13:46;9.70;99.90
18948;DHT22;9607;51.600;7.558;2023-04-24T03:16:13;9.70;99.90
18948;DHT22;9607;51.600;7.558;2023-04-24T03:18:39;9.70;99.90
18948;DHT22;9607;51.600;7.558;2023-04-24T03:21:06;9.70;99.90
18948;DHT22;9607;51.600;7.558;2023-04-24T03:23:34;9.70;99.90
18948;DHT22;9607;51.600;7.558;2023-04-24T03:26:01;9.70;99.90
18948;DHT22;9607;51.600;7.558;2023-04-24T03:28:28;9.70;99.90
18948;DHT22;9607;51.600;7.558;2023-04-24T03:30:55;9.70;99.90
18948;DHT22;9607;51.600;7.558;2023-04-24T03:33:22;9.80;99.90
18948;DHT22;9607;51.600;7.558;2023-04-24T03:35:48;9.80;99.90
18948;DHT22;9607;51.600;7.558;2023-04-24T03:38:15;9.90;99.90
18948;DHT22;9607;51.600;7.558;2023-04-24T03:40:43;9.90;99.90
18948;DHT22;9607;51.600;7.558;2023-04-24T03:43:10;9.90;99.90
18948;DHT22;9607;51.600;7.558;2023-04-24T03:45:37;9.90;99.90
18948;DHT22;9607;51.600;7.558;2023-04-24T03:48:04;10.00;99.90
18948;DHT22;9607;51.600;7.558;2023-04-24T03:50:30;10.00;99.90
18948;DHT22;9607;51.600;7.558;2023-04-24T03:52:57;10.00;99.90
18948;DHT22;9607;51.600;7.558;2023-04-24T03:55:24;10.00;99.90
18948;DHT22;9607;51.600;7.558;2023-04-24T03:57:52;10.00;99.90
18948;DHT22;9607;51.600;7.558;2023-04-24T04:00:19;10.00;99.90
18948;DHT22;9607;51.600;7.558;2023-04-24T04:02:47;10.00;99.90
18948;DHT22;9607;51.600;7.558;2023-04-24T04:05:13;10.00;99.90
18948;DHT22;9607;51.600;7.558;2023-04-24T04:07:40;10.10;99.90
18948;DHT22;9607;51.600;7.558;2023-04-24T04:10:07;10.10;99.90
18948;DHT22;9607;51.600;7.558;2023-04-24T04:12:34;10.10;99.90
18948;DHT22;9607;51.600;7.558;2023-04-24T04:15:03;10.10;99.90
18948;DHT22;9607;51.600;7.558;2023-04-24T04:17:31;10.10;99.90
18948;DHT22;9607;51.600;7.558;2023-04-24T04:19:57;10.10;99.90
18948;DHT22;9607;51.600;7.558;2023-04-24T04:22:24;10.20;99.90
18948;DHT22;9607;51.600;7.558;2023-04-24T04:24:51;10.20;99.90
18948;DHT22;9607;51.600;7.558;2023-04-24T04:27:18;10.20;99.90
18948;DHT22;9607;51.600;7.558;2023-04-24T04:29:46;10.20;99.90
18948;DHT22;9607;51.600;7.558;2023-04-24T04:32:15;10.20;99.90
18948;DHT22;9607;51.600;7.558;2023-04-24T04:34:42;10.20;99.90
18948;DHT22;9607;51.600;7.558;2023-04-24T04:37:11;10.20;99.90
18948;DHT22;9607;51.600;7.558;2023-04-24T04:39:38;10.30;99.90
18948;DHT22;9607;51.600;7.558;2023-04-24T04:42:05;10.30;99.90
18948;DHT22;9607;51.600;7.558;2023-04-24T04:44:32;10.30;99.90
18948;DHT22;9607;51.600;7.558;2023-04-24T04:47:01;10.30;99.90
18948;DHT22;9607;51.600;7.558;2023-04-24T04:49:32;10.30;99.90
18948;DHT22;9607;51.600;7.558;2023-04-24T04:51:59;10.30;99.90
18948;DHT22;9607;51.600;7.558;2023-04-24T04:54:26;10.30;99.90
18948;DHT22;9607;51.600;7.558;2023-04-24T04:56:53;10.30;99.90
18948;DHT22;9607;51.600;7.558;2023-04-24T04:59:20;10.30;99.90
18948;DHT22;9607;51.600;7.558;2023-04-24T05:01:47;10.30;99.90
18948;DHT22;9607;51.600;7.558;2023-04-24T05:04:13;10.30;99.90
18948;DHT22;9607;51.600;7.558;2023-04-24T05:06:45;10.30;99.90
18948;DHT22;9607;51.600;7.558;2023-04-24T05:09:12;10.30;99.90
18948;DHT22;9607;51.600;7.558;2023-04-24T05:11:39;10.30;99.90
18948;DHT22;9607;51.600;7.558;2023-04-24T05:14:06;10.30;99.90
18948;DHT22;9607;51.600;7.558;2023-04-24T05:16:33;10.40;99.90
18948;DHT22;9607;51.600;7.558;2023-04-24T05:19:00;10.30;99.90
18948;DHT22;9607;51.600;7.558;2023-04-24T05:21:26;10.40;99.90
18948;DHT22;9607;51.600;7.558;2023-04-24T05:23:55;10.40;99.90
18948;DHT22;9607;51.600;7.558;2023-04-24T05:26:22;10.40;99.90
18948;DHT22;9607;51.600;7.558;2023-04-24T05:28:50;10.50;99.90
18948;DHT22;9607;51.600;7.558;2023-04-24T05:31:17;10.50;99.90
18948;DHT22;9607;51.600;7.558;2023-04-24T05:33:45;10.60;99.90
18948;DHT22;9607;51.600;7.558;2023-04-24T05:36:12;10.60;99.90
18948;DHT22;9607;51.600;7.558;2023-04-24T05:38:38;10.60;99.90
18948;DHT22;9607;51.600;7.558;2023-04-24T05:41:06;10.60;99.90
18948;DHT22;9607;51.600;7.558;2023-04-24T05:43:33;10.70;99.90
18948;DHT22;9607;51.600;7.558;2023-04-24T05:46:00;10.80;99.90
18948;DHT22;9607;51.600;7.558;2023-04-24T05:48:27;10.80;99.90
18948;DHT22;9607;51.600;7.558;2023-04-24T05:50:54;10.80;99.90
18948;DHT22;9607;51.600;7.558;2023-04-24T05:53:20;10.90;99.90
18948;DHT22;9607;51.600;7.558;2023-04-24T05:55:47;10.90;99.90
18948;DHT22;9607;51.600;7.558;2023-04-24T05:58:15;10.90;99.90
18948;DHT22;9607;51.600;7.558;2023-04-24T06:00:42;10.90;99.90
18948;DHT22;9607;51.600;7.558;2023-04-24T06:03:11;10.90;99.90
18948;DHT22;9607;51.600;7.558;2023-04-24T06:05:38;11.00;99.90
18948;DHT22;9607;51.600;7.558;2023-04-24T06:08:05;11.00;99.90
18948;DHT22;9607;51.600;7.558;2023-04-24T06:10:32;11.00;99.90
18948;DHT22;9607;51.600;7.558;2023-04-24T06:13:00;11.00;99.90
18948;DHT22;9607;51.600;7.558;2023-04-24T06:15:29;11.00;99.90
18948;DHT22;9607;51.600;7.558;2023-04-24T06:17:57;11.00;99.90
18948;DHT22;9607;51.600;7.558;2023-04-24T06:20:24;11.00;99.90
18948;DHT22;9607;51.600;7.558;2023-04-24T06:22:51;10.90;99.90
18948;DHT22;9607;51.600;7.558;2023-04-24T06:25:18;10.80;99.90
18948;DHT22;9607;51.600;7.558;2023-04-24T06:27:45;10.70;99.90
18948;DHT22;9607;51.600;7.558;2023-04-24T06:30:12;10.70;99.90
18948;DHT22;9607;51.600;7.558;2023-04-24T06:32:41;10.60;99.90
18948;DHT22;9607;51.600;7.558;2023-04-24T06:35:08;10.60;99.90
18948;DHT22;9607;51.600;7.558;2023-04-24T06:37:35;10.60;99.90
18948;DHT22;9607;51.600;7.558;2023-04-24T06:40:02;10.60;99.90
18948;DHT22;9607;51.600;7.558;2023-04-24T06:42:29;10.60;99.90
18948;DHT22;9607;51.600;7.558;2023-04-24T06:44:56;10.60;99.90
18948;DHT22;9607;51.600;7.558;2023-04-24T06:47:23;10.60;99.90
18948;DHT22;9607;51.600;7.558;2023-04-24T06:49:51;10.60;99.90
18948;DHT22;9607;51.600;7.558;2023-04-24T06:52:18;10.60;99.90
18948;DHT22;9607;51.600;7.558;2023-04-24T06:54:45;10.60;99.90
18948;DHT22;9607;51.600;7.558;2023-04-24T06:57:12;10.60;99.90
18948;DHT22;9607;51.600;7.558;2023-04-24T06:59:39;10.60;99.90
18948;DHT22;9607;51.600;7.558;2023-04-24T07:02:08;10.50;99.90
18948;DHT22;9607;51.600;7.558;2023-04-24T07:04:35;10.50;99.90
18948;DHT22;9607;51.600;7.558;2023-04-24T07:07:03;10.60;99.90
18948;DHT22;9607;51.600;7.558;2023-04-24T07:09:33;10.70;99.90
18948;DHT22;9607;51.600;7.558;2023-04-24T07:12:05;10.90;99.90
18948;DHT22;9607;51.600;7.558;2023-04-24T07:14:33;11.10;99.90
18948;DHT22;9607;51.600;7.558;2023-04-24T07:17:00;11.20;99.90
18948;DHT22;9607;51.600;7.558;2023-04-24T07:19:27;11.40;99.90
18948;DHT22;9607;51.600;7.558;2023-04-24T07:21:57;11.60;99.90
18948;DHT22;9607;51.600;7.558;2023-04-24T07:24:26;11.80;99.90
18948;DHT22;9607;51.600;7.558;2023-04-24T07:26:55;12.00;99.90
18948;DHT22;9607;51.600;7.558;2023-04-24T07:29:22;12.00;99.90
18948;DHT22;9607;51.600;7.558;2023-04-24T07:31:49;12.10;99.90
18948;DHT22;9607;51.600;7.558;2023-04-24T07:34:16;12.00;99.90
18948;DHT22;9607;51.600;7.558;2023-04-24T07:36:43;11.90;99.90
18948;DHT22;9607;51.600;7.558;2023-04-24T07:39:09;11.80;99.90
18948;DHT22;9607;51.600;7.558;2023-04-24T07:41:37;11.80;99.90
18948;DHT22;9607;51.600;7.558;2023-04-24T07:44:04;11.80;99.90
18948;DHT22;9607;51.600;7.558;2023-04-24T07:46:32;11.70;99.90
18948;DHT22;9607;51.600;7.558;2023-04-24T07:48:59;11.50;99.90
18948;DHT22;9607;51.600;7.558;2023-04-24T07:51:26;11.40;99.90
18948;DHT22;9607;51.600;7.558;2023-04-24T07:53:54;11.30;99.90
18948;DHT22;9607;51.600;7.558;2023-04-24T07:56:21;11.30;99.90
18948;DHT22;9607;51.600;7.558;2023-04-24T07:58:49;11.40;99.90
18948;DHT22;9607;51.600;7.558;2023-04-24T08:01:16;11.50;99.90
18948;DHT22;9607;51.600;7.558;2023-04-24T08:03:43;11.60;99.90
18948;DHT22;9607;51.600;7.558;2023-04-24T08:06:09;11.60;99.90
18948;DHT22;9607;51.600;7.558;2023-04-24T08:08:36;11.50;99.90
18948;DHT22;9607;51.600;7.558;2023-04-24T08:11:03;11.40;99.90
18948;DHT22;9607;51.600;7.558;2023-04-24T08:13:30;11.40;99.90
18948;DHT22;9607;51.600;7.558;2023-04-24T08:15:58;11.40;99.90
18948;DHT22;9607;51.600;7.558;2023-04-24T08:18:25;11.40;99.90
18948;DHT22;9607;51.600;7.558;2023-04-24T08:20:52;11.50;99.90
18948;DHT22;9607;51.600;7.558;2023-04-24T08:23:19;11.60;99.90
18948;DHT22;9607;51.600;7.558;2023-04-24T08:25:45;11.70;99.90
18948;DHT22;9607;51.600;7.558;2023-04-24T08:28:12;11.80;99.90
18948;DHT22;9607;51.600;7.558;2023-04-24T08:30:45;11.90;99.90
18948;DHT22;9607;51.600;7.558;2023-04-24T08:33:13;12.00;99.90
18948;DHT22;9607;51.600;7.558;2023-04-24T08:35:40;12.10;99.90
18948;DHT22;9607;51.600;7.558;2023-04-24T08:38:07;12.20;99.90
18948;DHT22;9607;51.600;7.558;2023-04-24T08:40:35;12.30;99.90
18948;DHT22;9607;51.600;7.558;2023-04-24T08:43:03;12.50;99.90
18948;DHT22;9607;51.600;7.558;2023-04-24T08:45:30;12.50;99.90
18948;DHT22;9607;51.600;7.558;2023-04-24T08:47:59;12.40;99.90
18948;DHT22;9607;51.600;7.558;2023-04-24T08:50:29;12.20;99.90
18948;DHT22;9607;51.600;7.558;2023-04-24T08:52:56;12.00;99.90
18948;DHT22;9607;51.600;7.558;2023-04-24T08:55:24;11.70;99.90
18948;DHT22;9607;51.600;7.558;2023-04-24T08:57:52;11.50;99.90
18948;DHT22;9607;51.600;7.558;2023-04-24T09:00:20;11.30;99.90
18948;DHT22;9607;51.600;7.558;2023-04-24T09:02:49;11.20;99.90
18948;DHT22;9607;51.600;7.558;2023-04-24T09:05:16;11.10;99.90
18948;DHT22;9607;51.600;7.558;2023-04-24T09:07:52;11.00;99.90
18948;DHT22;9607;51.600;7.558;2023-04-24T09:10:20;10.80;99.90
18948;DHT22;9607;51.600;7.558;2023-04-24T09:12:47;10.60;99.90
18948;DHT22;9607;51.600;7.558;2023-04-24T09:15:14;10.60;99.90
18948;DHT22;9607;51.600;7.558;2023-04-24T09:17:41;10.40;99.90
18948;DHT22;9607;51.600;7.558;2023-04-24T09:20:09;10.30;99.90
18948;DHT22;9607;51.600;7.558;2023-04-24T09:22:36;10.20;99.90
18948;DHT22;9607;51.600;7.558;2023-04-24T09:25:06;10.10;99.90
18948;DHT22;9607;51.600;7.558;2023-04-24T09:27:34;10.10;99.90
18948;DHT22;9607;51.600;7.558;2023-04-24T09:30:01;10.10;99.90
18948;DHT22;9607;51.600;7.558;2023-04-24T09:32:28;10.10;99.90
18948;DHT22;9607;51.600;7.558;2023-04-24T09:35:08;10.10;99.90
18948;DHT22;9607;51.600;7.558;2023-04-24T09:37:36;10.00;99.90
18948;DHT22;9607;51.600;7.558;2023-04-24T09:40:13;10.00;99.90
18948;DHT22;9607;51.600;7.558;2023-04-24T09:42:43;9.90;99.90
18948;DHT22;9607;51.600;7.558;2023-04-24T09:45:11;9.90;99.90
18948;DHT22;9607;51.600;7.558;2023-04-24T09:47:38;9.80;99.90
18948;DHT22;9607;51.600;7.558;2023-04-24T09:50:13;9.80;99.90
18948;DHT22;9607;51.600;7.558;2023-04-24T09:52:41;9.90;99.90
18948;DHT22;9607;51.600;7.558;2023-04-24T09:55:20;9.80;99.90
18948;DHT22;9607;51.600;7.558;2023-04-24T09:57:48;9.80;99.90
18948;DHT22;9607;51.600;7.558;2023-04-24T10:00:19;9.90;99.90
18948;DHT22;9607;51.600;7.558;2023-04-24T10:02:50;9.90;99.90
18948;DHT22;9607;51.600;7.558;2023-04-24T10:05:17;9.80;99.90
18948;DHT22;9607;51.600;7.558;2023-04-24T10:07:44;9.80;99.90
18948;DHT22;9607;51.600;7.558;2023-04-24T10:10:11;9.80;99.90
18948;DHT22;9607;51.600;7.558;2023-04-24T10:12:40;9.70;99.90
18948;DHT22;9607;51.600;7.558;2023-04-24T10:15:09;9.60;99.90
18948;DHT22;9607;51.600;7.558;2023-04-24T10:17:38;9.50;99.90
18948;DHT22;9607;51.600;7.558;2023-04-24T10:20:06;9.40;99.90
18948;DHT22;9607;51.600;7.558;2023-04-24T10:22:34;9.30;99.90
18948;DHT22;9607;51.600;7.558;2023-04-24T10:25:04;9.20;99.90
18948;DHT22;9607;51.600;7.558;2023-04-24T10:27:32;9.00;99.90
18948;DHT22;9607;51.600;7.558;2023-04-24T10:30:02;8.90;99.90
18948;DHT22;9607;51.600;7.558;2023-04-24T10:32:29;8.80;99.90
18948;DHT22;9607;51.600;7.558;2023-04-24T10:34:56;8.70;99.90
18948;DHT22;9607;51.600;7.558;2023-04-24T10:37:24;8.70;99.90
18948;DHT22;9607;51.600;7.558;2023-04-24T10:39:51;8.70;99.90
18948;DHT22;9607;51.600;7.558;2023-04-24T10:42:20;8.60;99.90
18948;DHT22;9607;51.600;7.558;2023-04-24T10:44:47;8.60;99.90
18948;DHT22;9607;51.600;7.558;2023-04-24T10:47:16;8.50;99.90
18948;DHT22;9607;51.600;7.558;2023-04-24T10:49:43;8.50;99.90
18948;DHT22;9607;51.600;7.558;2023-04-24T10:52:10;8.40;99.90
18948;DHT22;9607;51.600;7.558;2023-04-24T10:54:42;8.30;99.90
18948;DHT22;9607;51.600;7.558;2023-04-24T10:57:26;8.30;99.90
18948;DHT22;9607;51.600;7.558;2023-04-24T11:00:18;8.30;99.90
18948;DHT22;9607;51.600;7.558;2023-04-24T11:02:47;8.20;99.90
18948;DHT22;9607;51.600;7.558;2023-04-24T11:05:16;8.20;99.90
18948;DHT22;9607;51.600;7.558;2023-04-24T11:08:12;8.20;99.90
18948;DHT22;9607;51.600;7.558;2023-04-24T11:10:40;8.20;99.90
18948;DHT22;9607;51.600;7.558;2023-04-24T11:13:07;8.20;99.90
18948;DHT22;9607;51.600;7.558;2023-04-24T11:15:35;8.30;99.90
18948;DHT22;9607;51.600;7.558;2023-04-24T11:18:03;8.40;99.90
18948;DHT22;9607;51.600;7.558;2023-04-24T11:20:30;8.30;99.90
18948;DHT22;9607;51.600;7.558;2023-04-24T11:23:03;8.40;99.90
18948;DHT22;9607;51.600;7.558;2023-04-24T11:25:32;8.40;99.90
18948;DHT22;9607;51.600;7.558;2023-04-24T11:28:05;8.50;99.90
18948;DHT22;9607;51.600;7.558;2023-04-24T11:30:33;8.50;99.90
18948;DHT22;9607;51.600;7.558;2023-04-24T11:33:05;8.50;99.90
18948;DHT22;9607;51.600;7.558;2023-04-24T11:35:35;8.60;99.90
18948;DHT22;9607;51.600;7.558;2023-04-24T11:38:06;8.50;99.90
18948;DHT22;9607;51.600;7.558;2023-04-24T11:40:33;8.50;99.90
18948;DHT22;9607;51.600;7.558;2023-04-24T11:43:00;8.40;99.90
18948;DHT22;9607;51.600;7.558;2023-04-24T11:45:29;8.40;99.90
18948;DHT22;9607;51.600;7.558;2023-04-24T11:47:56;8.40;99.90
18948;DHT22;9607;51.600;7.558;2023-04-24T11:50:27;8.40;99.90
18948;DHT22;9607;51.600;7.558;2023-04-24T11:52:55;8.40;99.90
18948;DHT22;9607;51.600;7.558;2023-04-24T11:55:27;8.40;99.90
18948;DHT22;9607;51.600;7.558;2023-04-24T11:57:55;8.50;99.90
18948;DHT22;9607;51.600;7.558;2023-04-24T12:00:24;8.50;99.90
18948;DHT22;9607;51.600;7.558;2023-04-24T12:03:02;8.60;99.90
18948;DHT22;9607;51.600;7.558;2023-04-24T12:05:31;8.60;99.90
18948;DHT22;9607;51.600;7.558;2023-04-24T12:07:59;8.70;99.90
18948;DHT22;9607;51.600;7.558;2023-04-24T12:10:27;8.80;99.90
18948;DHT22;9607;51.600;7.558;2023-04-24T12:12:56;8.90;99.90
18948;DHT22;9607;51.600;7.558;2023-04-24T12:15:23;9.00;99.90
18948;DHT22;9607;51.600;7.558;2023-04-24T12:17:51;9.10;99.90
18948;DHT22;9607;51.600;7.558;2023-04-24T12:20:24;9.10;99.90
18948;DHT22;9607;51.600;7.558;2023-04-24T12:22:53;9.20;99.90
18948;DHT22;9607;51.600;7.558;2023-04-24T12:25:22;9.30;99.90
18948;DHT22;9607;51.600;7.558;2023-04-24T12:27:53;9.30;99.90
18948;DHT22;9607;51.600;7.558;2023-04-24T12:30:25;9.30;99.90
18948;DHT22;9607;51.600;7.558;2023-04-24T12:32:52;9.40;99.90
18948;DHT22;9607;51.600;7.558;2023-04-24T12:35:22;9.50;99.90
18948;DHT22;9607;51.600;7.558;2023-04-24T12:37:49;9.50;99.90
18948;DHT22;9607;51.600;7.558;2023-04-24T12:40:19;9.60;99.90
18948;DHT22;9607;51.600;7.558;2023-04-24T12:42:47;9.80;99.90
18948;DHT22;9607;51.600;7.558;2023-04-24T12:45:14;9.90;99.90
18948;DHT22;9607;51.600;7.558;2023-04-24T12:47:43;10.00;99.90
18948;DHT22;9607;51.600;7.558;2023-04-24T12:50:11;10.40;99.90
18948;DHT22;9607;51.600;7.558;2023-04-24T12:52:38;10.60;99.90
18948;DHT22;9607;51.600;7.558;2023-04-24T12:55:06;10.60;99.90
18948;DHT22;9607;51.600;7.558;2023-04-24T12:57:37;10.60;99.90
18948;DHT22;9607;51.600;7.558;2023-04-24T13:00:06;10.40;99.90
18948;DHT22;9607;51.600;7.558;2023-04-24T13:02:33;10.30;99.90
18948;DHT22;9607;51.600;7.558;2023-04-24T13:05:01;10.10;99.90
18948;DHT22;9607;51.600;7.558;2023-04-24T13:07:28;10.00;99.90
18948;DHT22;9607;51.600;7.558;2023-04-24T13:09:56;10.00;99.90
18948;DHT22;9607;51.600;7.558;2023-04-24T13:12:23;10.00;99.90
18948;DHT22;9607;51.600;7.558;2023-04-24T13:14:52;10.00;99.90
18948;DHT22;9607;51.600;7.558;2023-04-24T13:17:19;10.00;99.90
18948;DHT22;9607;51.600;7.558;2023-04-24T13:19:46;10.10;99.90
18948;DHT22;9607;51.600;7.558;2023-04-24T13:22:13;10.10;99.90
18948;DHT22;9607;51.600;7.558;2023-04-24T13:24:39;10.10;99.90
18948;DHT22;9607;51.600;7.558;2023-04-24T13:27:07;10.20;99.90
18948;DHT22;9607;51.600;7.558;2023-04-24T13:29:34;10.10;99.90
18948;DHT22;9607;51.600;7.558;2023-04-24T13:32:03;10.10;99.90
18948;DHT22;9607;51.600;7.558;2023-04-24T13:34:30;10.00;99.90
18948;DHT22;9607;51.600;7.558;2023-04-24T13:36:57;10.00;99.90
18948;DHT22;9607;51.600;7.558;2023-04-24T13:39:25;9.90;99.90
18948;DHT22;9607;51.600;7.558;2023-04-24T13:41:52;9.90;99.90
18948;DHT22;9607;51.600;7.558;2023-04-24T13:44:20;10.00;99.90
18948;DHT22;9607;51.600;7.558;2023-04-24T13:46:49;10.00;99.90
18948;DHT22;9607;51.600;7.558;2023-04-24T13:49:18;10.10;99.90
18948;DHT22;9607;51.600;7.558;2023-04-24T13:51:45;10.00;99.90
18948;DHT22;9607;51.600;7.558;2023-04-24T13:54:12;9.90;99.90
18948;DHT22;9607;51.600;7.558;2023-04-24T13:56:39;9.80;99.90
18948;DHT22;9607;51.600;7.558;2023-04-24T13:59:06;9.80;99.90
18948;DHT22;9607;51.600;7.558;2023-04-24T14:01:34;9.70;99.90
18948;DHT22;9607;51.600;7.558;2023-04-24T14:04:01;9.60;99.90
18948;DHT22;9607;51.600;7.558;2023-04-24T14:06:29;9.60;99.90
18948;DHT22;9607;51.600;7.558;2023-04-24T14:08:56;9.50;99.90
18948;DHT22;9607;51.600;7.558;2023-04-24T14:11:23;9.60;99.90
18948;DHT22;9607;51.600;7.558;2023-04-24T14:13:50;9.70;99.90
18948;DHT22;9607;51.600;7.558;2023-04-24T14:16:17;9.80;99.90
18948;DHT22;9607;51.600;7.558;2023-04-24T14:18:44;10.00;99.90
18948;DHT22;9607;51.600;7.558;2023-04-24T14:21:11;10.20;99.90
18948;DHT22;9607;51.600;7.558;2023-04-24T14:23:39;10.50;99.90
18948;DHT22;9607;51.600;7.558;2023-04-24T14:26:06;10.80;99.90
18948;DHT22;9607;51.600;7.558;2023-04-24T14:28:34;11.00;99.90
18948;DHT22;9607;51.600;7.558;2023-04-24T14:31:01;11.10;99.90
18948;DHT22;9607;51.600;7.558;2023-04-24T14:33:28;11.10;99.90
18948;DHT22;9607;51.600;7.558;2023-04-24T14:35:55;11.00;99.90
18948;DHT22;9607;51.600;7.558;2023-04-24T14:38:22;10.90;99.90
18948;DHT22;9607;51.600;7.558;2023-04-24T14:40:50;10.70;99.90
18948;DHT22;9607;51.600;7.558;2023-04-24T14:43:17;10.90;99.90
18948;DHT22;9607;51.600;7.558;2023-04-24T14:45:43;11.10;99.90
18948;DHT22;9607;51.600;7.558;2023-04-24T14:48:10;11.20;99.90
18948;DHT22;9607;51.600;7.558;2023-04-24T14:50:38;11.30;99.90
18948;DHT22;9607;51.600;7.558;2023-04-24T14:53:05;11.30;99.90
18948;DHT22;9607;51.600;7.558;2023-04-24T14:55:31;11.20;99.90
18948;DHT22;9607;51.600;7.558;2023-04-24T14:58:01;11.10;99.90
18948;DHT22;9607;51.600;7.558;2023-04-24T15:00:28;10.90;99.90
18948;DHT22;9607;51.600;7.558;2023-04-24T15:02:55;10.80;99.90
18948;DHT22;9607;51.600;7.558;2023-04-24T15:05:22;10.60;99.90
18948;DHT22;9607;51.600;7.558;2023-04-24T15:07:50;10.40;99.90
18948;DHT22;9607;51.600;7.558;2023-04-24T15:10:17;10.10;99.90
18948;DHT22;9607;51.600;7.558;2023-04-24T15:12:44;9.70;99.90
18948;DHT22;9607;51.600;7.558;2023-04-24T15:15:13;9.50;99.90
18948;DHT22;9607;51.600;7.558;2023-04-24T15:17:39;9.20;99.90
18948;DHT22;9607;51.600;7.558;2023-04-24T15:20:07;9.10;99.90
18948;DHT22;9607;51.600;7.558;2023-04-24T15:22:35;9.00;99.90
18948;DHT22;9607;51.600;7.558;2023-04-24T15:25:02;9.00;99.90
18948;DHT22;9607;51.600;7.558;2023-04-24T15:27:39;9.20;99.90
18948;DHT22;9607;51.600;7.558;2023-04-24T15:30:08;9.70;99.90
18948;DHT22;9607;51.600;7.558;2023-04-24T15:32:36;9.90;99.90
18948;DHT22;9607;51.600;7.558;2023-04-24T15:35:04;10.00;99.90
18948;DHT22;9607;51.600;7.558;2023-04-24T15:37:31;10.30;99.90
18948;DHT22;9607;51.600;7.558;2023-04-24T15:39:58;11.20;99.90
18948;DHT22;9607;51.600;7.558;2023-04-24T15:42:25;11.90;99.90
18948;DHT22;9607;51.600;7.558;2023-04-24T15:44:52;13.30;99.90
18948;DHT22;9607;51.600;7.558;2023-04-24T15:47:20;14.80;99.90
18948;DHT22;9607;51.600;7.558;2023-04-24T15:49:48;15.00;99.90
18948;DHT22;9607;51.600;7.558;2023-04-24T15:52:15;14.90;99.90
18948;DHT22;9607;51.600;7.558;2023-04-24T15:54:41;14.90;99.90